Aviation Digital Data Service (ADDS)

Output produced by METARs form (2008 UTC 02 October 2022)
found at http://www.aviationweather.gov/metar/data/
 
METAR text: RPVM 022000Z 32003KT 9999 FEW020 BKN100 28/25 Q1008 RMK A2977
Conditions at: RPVM (MACTAN-CEBU , PH) observed 2000 UTC 02 October 2022
Temperature: 28.0°C (82°F)
Dewpoint: 25.0°C (77°F) [RH = 84%]
Pressure (altimeter): 29.76 inches Hg (1008.0 mb)
Winds: from the NW (320 degrees) at 3 MPH (3 knots; 1.5 m/s)
Visibility: 6 or more miles (10+ km)
Ceiling: 10000 feet AGL
Clouds: few clouds at 2000 feet AGL
broken clouds at 10000 feet AGL
Weather: no significant weather observed at this time

METAR text: RPVM 021900Z 33004KT 9999 FEW020 28/25 Q1007 RMK A2974
Conditions at: RPVM (MACTAN-CEBU , PH) observed 1900 UTC 02 October 2022
Temperature: 28.0°C (82°F)
Dewpoint: 25.0°C (77°F) [RH = 84%]
Pressure (altimeter): 29.73 inches Hg (1007.0 mb)
Winds: from the NNW (330 degrees) at 5 MPH (4 knots; 2.1 m/s)
Visibility: 6 or more miles (10+ km)
Ceiling: at least 12,000 feet AGL
Clouds: few clouds at 2000 feet AGL
Weather: no significant weather observed at this time

Forecast for: RPVM (MACTAN-CEBU , PH)
Text: TAF RPVM 021700Z 0218/0324 04006KT 9999 FEW020 SCT300
Forecast period: 1800 UTC 02 October 2022 to 0000 UTC 04 October 2022
Forecast type: FROM: standard forecast or significant change
Winds: from the NE (40 degrees) at 7 MPH (6 knots; 3.1 m/s)
Visibility: 6 or more miles (10+ km)
Ceiling: at least 12,000 feet AGL
Clouds: few clouds at 2000 feet AGL
scattered clouds at 30000 feet AGL
Weather: no significant weather forecast for this period
Text: TEMPO 0218/0224 FEW020 BKN100
Forecast period: 1800 UTC 02 October 2022 to 0000 UTC 03 October 2022
Forecast type: TEMPORARY: The following changes expected for less than half the time period
Visibility: missing
Ceiling: 10000 feet AGL
Clouds: few clouds at 2000 feet AGL
broken clouds at 10000 feet AGL
Weather: no significant weather forecast for this period
Text: TEMPO 0300/0306 06010KT FEW018CB BKN300
Forecast period: 0000 to 0600 UTC 03 October 2022
Forecast type: TEMPORARY: The following changes expected for less than half the time period
Winds: from the ENE (60 degrees) at 12 MPH (10 knots; 5.1 m/s)
Visibility: missing
Ceiling: 30000 feet AGL
Clouds: few clouds at 1800 feet AGL
broken clouds at 30000 feet AGL
Weather: no significant weather forecast for this period